Latest Weather Observations for Cressy

IDT60801

Issued at 11:02 am EDT Saturday 7 March 2015 (issued every 30 minutes, with the page automatically refreshed every 10 minutes)

About weather observations | Map of weather stations | Latest weather observations for TAS | Other Formats
Station Details ID: 091306 Name: CRESSY RESEARCH STATION Lat: -41.73 Lon: 147.08 Height: 148.0 m
Data from the previous 72 hours. | See also: Recent months at Cressy
Date/Time
EDT
Temp
°C
App
Temp
°C
Dew
Point
Rel
Hum
%
Delta-T
°C
Wind Press
QNH
hPa
Press
MSL
hPa
Rain
since 9 am
mm
Dir
 
Spd
km/h
Gust
km/h
Spd
kts
Gust
kts
07/11:00am 18.4 11.6 11.9 66 3.6 NNW 39 48 21 26 - - 0.0
07/10:30am 15.4 11.2 11.2 76 2.3 NW 24 35 13 19 - - 0.0
07/10:00am 13.4 10.0 11.1 86 1.2 NW 20 30 11 16 - - 0.0
07/09:30am 13.5 9.4 10.1 80 1.8 NW 22 32 12 17 - - 0.0
07/09:00am 12.6 8.4 8.3 75 2.1 NNW 20 28 11 15 - - 0.0
07/08:30am 12.1 7.8 7.8 75 2.1 NNW 20 28 11 15 - - 0.0
07/08:00am 12.0 7.6 6.5 69 2.6 N 19 24 10 13 - - 0.0
07/07:30am 11.8 6.8 6.3 69 2.6 N 22 30 12 16 - - 0.0
07/07:00am 11.3 6.9 6.6 73 2.2 N 19 26 10 14 - - 0.0
07/06:30am 10.9 6.3 6.6 75 2.0 N 20 26 11 14 - - 0.0
07/06:00am 10.5 6.5 6.5 76 1.9 N 17 26 9 14 - - 0.0
07/05:30am 8.6 6.1 5.0 78 1.6 N 7 9 4 5 - - 0.0
07/05:00am 8.3 5.8 4.5 77 1.7 NNE 7 9 4 5 - - 0.0
07/04:30am 7.9 4.9 4.3 78 1.6 NNE 9 11 5 6 - - 0.0
07/04:00am 7.6 5.3 4.6 81 1.3 NNE 6 7 3 4 - - 0.0
07/03:30am 7.3 6.2 5.1 86 1.0 CALM 0 6 0 3 - - 0.0
07/03:00am 5.9 3.8 3.9 87 0.9 NNE 4 9 2 5 - - 0.0
07/02:30am 4.5 2.9 2.4 86 0.9 CALM 0 0 0 0 - - 0.0
07/02:00am 4.5 1.5 1.7 82 1.1 S 7 9 4 5 - - 0.0
07/01:30am 6.2 2.7 1.5 72 1.9 SSW 9 13 5 7 - - 0.0
07/01:00am 7.1 3.6 1.2 66 2.4 S 9 11 5 6 - - 0.0
07/12:30am 7.7 4.3 2.0 67 2.4 S 9 13 5 7 - - 0.0
07/12:00am 8.6 5.2 2.0 63 2.8 SSW 9 11 5 6 - - 0.0
 
Date/Time
EDT
Temp
°C
App
Temp
°C
Dew
Point
Rel
Hum
%
Delta-T
°C
Wind Press
QNH
hPa
Press
MSL
hPa
Rain
since 9 am
mm
Dir
 
Spd
km/h
Gust
km/h
Spd
kts
Gust
kts
06/11:30pm 7.6 4.1 1.5 65 2.5 SSW 9 11 5 6 - - 0.0
06/11:00pm 9.6 6.3 2.7 62 3.0 SSW 9 11 5 6 - - 0.0
06/10:30pm 8.4 5.0 1.6 62 2.8 SSE 9 13 5 7 - - 0.0
06/10:00pm 10.5 8.8 1.6 54 3.8 CALM 0 0 0 0 - - 0.0
06/09:30pm 11.1 7.1 0.8 49 4.3 ESE 11 15 6 8 - - 0.0
06/09:00pm 12.9 8.2 1.0 44 5.1 ESE 15 17 8 9 - - 0.0
06/08:30pm 12.5 8.1 0.3 43 5.1 ESE 13 17 7 9 - - 0.0
06/08:00pm 14.6 10.2 0.1 37 6.2 SE 13 17 7 9 - - 0.0
06/07:30pm 16.1 12.3 -1.0 31 7.2 SE 9 11 5 6 - - 0.0
06/07:00pm 17.9 13.8 0.1 30 7.8 SSE 11 15 6 8 - - 0.0
06/06:30pm 18.5 13.6 -0.3 28 8.2 SSE 15 20 8 11 - - 0.0
06/06:00pm 18.5 13.2 -0.3 28 8.2 S 17 26 9 14 - - 0.0
06/05:30pm 19.1 13.3 0.2 28 8.4 S 20 32 11 17 - - 0.0
06/05:00pm 18.7 12.1 -0.2 28 8.3 SSW 24 33 13 18 - - 0.0
06/04:30pm 18.6 12.4 -0.2 28 8.2 S 22 37 12 20 - - 0.0
06/04:00pm 18.4 11.2 0.5 30 7.9 S 28 37 15 20 - - 0.0
06/03:30pm 18.1 10.5 0.7 31 7.7 SSW 30 41 16 22 - - 0.0
06/03:00pm 17.7 9.8 1.2 33 7.4 SSW 32 43 17 23 - - 0.0
06/02:30pm 17.8 10.2 0.5 31 7.6 SSW 30 44 16 24 - - 0.0
06/02:00pm 17.2 9.3 1.2 34 7.1 S 32 50 17 27 - - 0.0
06/01:55pm 16.9 9.7 1.0 34 7.0 SSE 28 50 15 27 - - 0.0
06/01:30pm 17.4 9.5 1.0 33 7.3 S 32 44 17 24 - - 0.0
06/01:15pm 17.4 10.3 1.4 34 7.2 S 28 46 15 25 - - 0.0
06/01:00pm 17.2 10.5 1.6 35 7.0 S 26 41 14 22 - - 0.0
06/12:45pm 17.7 10.3 1.7 34 7.2 S 30 50 16 27 - - 0.0
06/12:30pm 16.6 8.4 0.3 33 7.1 S 33 48 18 26 - - 0.0
06/12:00pm 16.7 8.8 0.8 34 7.0 S 32 50 17 27 - - 0.0
06/11:38am 16.2 9.1 1.1 36 6.7 S 28 46 15 25 - - 0.0
06/11:30am 15.8 9.4 0.8 36 6.5 S 24 44 13 24 - - 0.0
06/11:00am 16.4 9.7 1.3 36 6.7 S 26 46 14 25 - - 0.0
06/10:30am 15.9 10.4 0.5 35 6.7 SSW 19 35 10 19 - - 0.0
06/10:15am 15.6 7.7 1.0 37 6.4 SSW 32 50 17 27 - - 0.0
06/10:00am 15.2 6.3 1.0 38 6.2 SSW 37 54 20 29 - - 0.0
06/09:30am 15.1 4.9 0.9 38 6.2 SSW 44 69 24 37 - - 0.0
06/09:10am 15.5 4.2 -1.1 32 6.9 SSW 48 83 26 45 - - 0.0
06/09:03am 15.4 4.7 0.4 36 6.5 SSW 46 65 25 35 - - 0.0
06/09:00am 15.3 4.5 1.8 40 6.0 SSW 48 63 26 34 - - 0.0
06/08:30am 15.5 5.5 2.3 41 5.9 SSW 44 65 24 35 - - 0.0
06/08:00am 15.8 7.3 2.9 42 5.9 SW 37 59 20 32 - - 0.0
06/07:59am 15.7 7.1 2.8 42 5.9 SW 37 59 20 32 - - 0.0
06/07:45am 15.4 7.9 3.5 45 5.5 WSW 32 56 17 30 - - 0.0
06/07:30am 15.2 8.7 4.6 49 5.0 WSW 28 44 15 24 - - 0.0
06/07:00am 16.2 11.8 4.9 47 5.4 SSW 17 28 9 15 - - 0.0
06/06:30am 16.6 13.1 5.6 48 5.3 S 13 28 7 15 - - 0.0
06/06:00am 16.8 12.2 5.7 48 5.4 SSW 19 46 10 25 - - 0.0
06/05:30am 16.9 13.2 6.1 49 5.3 W 15 24 8 13 - - 0.0
06/05:00am 17.2 12.7 6.1 48 5.5 WNW 19 26 10 14 - - 0.0
06/04:30am 17.1 13.4 6.3 49 5.3 WNW 15 30 8 16 - - 0.0
06/04:00am 16.8 11.4 6.3 50 5.2 WNW 24 32 13 17 - - 0.0
06/03:41am 17.1 10.9 6.0 48 5.4 WNW 28 46 15 25 - - 0.0
06/03:30am 16.9 11.0 5.8 48 5.4 NW 26 43 14 23 - - 0.0
06/03:02am 15.7 8.4 5.6 51 4.9 WNW 33 52 18 28 - - 0.0
06/03:00am 15.5 7.9 5.7 52 4.7 WNW 35 52 19 28 - - 0.0
06/02:48am 15.8 7.8 5.7 51 4.9 WNW 37 57 20 31 - - 0.0
06/02:30am 15.5 9.1 5.4 51 4.8 WNW 28 41 15 22 - - 0.0
06/02:00am 14.3 9.1 5.4 55 4.2 NW 22 35 12 19 - - 0.0
06/01:30am 14.2 7.8 5.3 55 4.2 WNW 28 37 15 20 - - 0.0
06/01:08am 14.1 7.3 5.2 55 4.2 WNW 30 48 16 26 - - 0.0
06/01:00am 14.2 6.4 5.0 54 4.3 WNW 35 50 19 27 - - 0.0
06/12:53am 14.4 7.2 5.0 53 4.4 WNW 32 50 17 27 - - 0.0
06/12:30am 13.1 5.9 5.8 61 3.5 WNW 33 43 18 23 - - 0.0
06/12:00am 12.7 6.4 5.6 62 3.3 NW 28 39 15 21 - - 0.0
 
Date/Time
EDT
Temp
°C
App
Temp
°C
Dew
Point
Rel
Hum
%
Delta-T
°C
Wind Press
QNH
hPa
Press
MSL
hPa
Rain
since 9 am
mm
Dir
 
Spd
km/h
Gust
km/h
Spd
kts
Gust
kts
05/11:30pm 11.6 4.5 5.5 66 2.8 NNW 32 43 17 23 - - 0.0
05/11:00pm 11.6 4.9 5.5 66 2.8 N 30 43 16 23 - - 0.0
05/10:30pm 11.8 4.0 5.0 63 3.1 NNW 35 46 19 25 - - 0.0
05/10:00pm 11.7 4.3 4.9 63 3.1 NNW 33 44 18 24 - - 0.0
05/09:30pm 11.6 4.1 4.6 62 3.2 NNW 33 44 18 24 - - 0.0
05/09:00pm 11.6 4.2 4.1 60 3.4 NNW 32 43 17 23 - - 0.0
05/08:30pm 11.7 4.1 4.0 59 3.5 NNW 33 46 18 25 - - 0.0
05/08:00pm 11.6 3.9 3.4 57 3.6 NW 33 44 18 24 - - 0.0
05/07:30pm 11.8 4.3 3.3 56 3.8 NW 32 44 17 24 - - 0.0
05/07:00pm 12.6 5.3 2.2 49 4.5 NW 30 41 16 22 - - 0.0
05/06:30pm 13.1 5.3 1.5 45 5.0 NW 32 46 17 25 - - 0.0
05/06:25pm 13.3 6.1 1.0 43 5.3 NW 28 46 15 25 - - 0.0
05/06:00pm 13.0 5.6 1.7 46 4.9 NW 30 46 16 25 - - 0.0
05/05:30pm 14.5 6.4 1.1 40 5.8 NW 33 48 18 26 - - 0.0
05/05:00pm 16.5 9.7 0.6 34 6.9 WNW 26 39 14 21 - - 0.0
05/04:30pm 16.5 9.7 0.6 34 6.9 W 26 41 14 22 - - 0.0
05/04:00pm 15.7 7.6 -0.1 34 6.8 WSW 32 43 17 23 - - 0.0
05/03:42pm 16.0 8.8 1.0 36 6.6 W 28 48 15 26 - - 0.0
05/03:30pm 16.7 9.3 2.0 37 6.6 WSW 30 44 16 24 - - 0.0
05/03:00pm 16.0 10.7 2.1 39 6.2 WSW 19 33 10 18 - - 0.0
05/02:30pm 16.0 9.6 1.0 36 6.6 WSW 24 44 13 24 - - 0.0
05/02:12pm 15.5 7.8 0.1 35 6.6 WSW 30 48 16 26 - - 0.0
05/02:00pm 15.8 7.8 0.4 35 6.7 WSW 32 46 17 25 - - 0.0
05/01:30pm 15.3 7.0 -0.1 35 6.6 SW 33 52 18 28 - - 0.0
05/01:15pm 15.2 7.9 -0.1 35 6.5 WSW 28 50 15 27 - - 0.0
05/01:00pm 15.0 7.2 -0.7 34 6.6 WSW 30 43 16 23 - - 0.0
05/12:30pm 14.6 7.8 -1.5 33 6.6 SSW 24 35 13 19 - - 0.0
05/12:08pm 14.0 7.4 -0.1 38 5.9 W 24 61 13 33 - - 0.0
05/12:00pm 14.0 9.5 -0.4 37 6.0 WNW 13 20 7 11 - - 0.0
05/11:30am 13.6 8.8 -0.1 39 5.7 SW 15 22 8 12 - - 0.0
05/11:00am 12.3 6.2 0.1 43 5.1 SW 22 44 12 24 - - 0.0
05/10:42am 12.0 6.8 0.1 44 4.9 SSW 17 46 9 25 - - 0.0
05/10:30am 11.4 6.6 -0.1 45 4.7 SSW 15 30 8 16 - - 0.0
05/10:00am 12.3 5.1 -2.0 37 5.7 SW 26 44 14 24 - - 0.0
05/09:42am 11.2 4.0 -2.2 39 5.2 SW 26 57 14 31 - - 0.0
05/09:30am 10.1 5.5 1.7 56 3.5 W 15 32 8 17 - - 0.0
05/09:03am 10.7 3.3 -0.4 46 4.5 SW 28 52 15 28 - - 0.0
05/09:00am 10.9 4.2 -0.9 44 4.7 SW 24 41 13 22 - - 0.0
05/08:30am 9.3 2.6 1.2 57 3.4 SSW 26 41 14 22 - - 0.0
05/08:16am 10.1 2.8 -0.1 49 4.1 SW 28 50 15 27 - - 0.0
05/08:00am 9.2 3.5 0.6 55 3.5 SW 20 35 11 19 - - 0.0
05/07:46am 9.6 3.5 0.2 52 3.8 SSW 22 41 12 22 - - 0.0
05/07:30am 8.3 4.6 0.1 56 3.3 S 9 15 5 8 - - 0.0
05/07:00am 9.4 4.9 -0.2 51 3.8 SW 13 20 7 11 - - 0.0
05/06:30am 10.1 4.5 0.2 50 4.0 WNW 19 28 10 15 - - 0.0
05/06:00am 10.2 3.7 0.3 50 4.0 WSW 24 39 13 21 - - 0.0
05/05:30am 10.9 5.3 0.9 50 4.2 WSW 20 35 11 19 - - 0.0
05/05:05am 11.8 4.4 -0.4 43 5.0 WSW 28 56 15 30 - - 0.0
05/05:00am 11.4 4.9 0.5 47 4.5 WSW 24 39 13 21 - - 0.0
05/04:34am 10.9 3.1 1.7 53 3.9 WSW 32 50 17 27 - - 0.0
05/04:30am 10.6 1.9 1.7 54 3.8 W 37 50 20 27 - - 0.0
05/04:22am 10.7 3.3 2.0 55 3.7 WSW 30 48 16 26 - - 0.0
05/04:00am 11.1 3.5 2.9 57 3.6 W 32 46 17 25 - - 0.0
05/03:30am 11.6 5.3 3.6 58 3.6 W 26 39 14 21 - - 0.0
05/03:00am 12.2 7.1 3.9 57 3.8 W 20 30 11 16 - - 0.0
05/02:39am 12.3 7.2 4.3 58 3.7 WNW 20 48 11 26 - - 0.0
05/02:30am 11.8 7.7 6.1 68 2.7 NW 17 28 9 15 - - 0.0
05/02:00am 12.4 7.8 6.5 67 2.8 NNW 20 26 11 14 - - 0.0
05/01:30am 13.6 8.7 5.3 57 3.9 NW 20 33 11 18 - - 0.0
05/01:00am 13.1 8.4 7.8 70 2.6 NW 22 32 12 17 - - 0.0
05/12:30am 12.6 8.9 10.1 85 1.3 NNW 20 30 11 16 - - 0.0
05/12:00am 12.5 8.6 10.9 90 0.8 NNW 22 32 12 17 - - 0.0
 
Date/Time
EDT
Temp
°C
App
Temp
°C
Dew
Point
Rel
Hum
%
Delta-T
°C
Wind Press
QNH
hPa
Press
MSL
hPa
Rain
since 9 am
mm
Dir
 
Spd
km/h
Gust
km/h
Spd
kts
Gust
kts
04/11:30pm 12.2 9.1 11.6 96 0.3 N 19 26 10 14 - - 0.0
04/11:00pm 12.5 8.9 12.0 97 0.3 N 22 30 12 16 - - 0.0
04/10:30pm 12.7 9.1 11.8 94 0.5 N 22 30 12 16 - - 0.0
04/10:00pm 13.2 9.2 10.6 84 1.4 NNW 22 35 12 19 - - 0.0
04/09:30pm 14.8 7.5 8.7 67 3.1 NNW 37 54 20 29 - - 0.0
04/09:19pm 15.1 8.7 8.6 65 3.3 NNW 32 56 17 30 - - 0.0
04/09:00pm 14.9 9.8 7.7 62 3.6 NNW 24 35 13 19 - - 0.0
04/08:30pm 15.3 9.2 8.1 62 3.6 NNW 30 41 16 22 - - 0.0
04/08:00pm 15.9 9.2 9.6 66 3.3 NW 35 48 19 26 - - 0.0
04/07:30pm 16.8 10.2 10.0 64 3.6 NW 35 57 19 31 - - 0.0
04/07:00pm 18.0 11.1 8.8 55 4.8 NW 35 54 19 29 - - 0.0
04/06:32pm 18.6 11.9 8.3 51 5.3 NW 33 52 18 28 - - 0.0
04/06:30pm 18.7 12.3 8.4 51 5.4 NW 32 46 17 25 - - 0.0
04/06:09pm 19.0 12.5 8.9 52 5.3 NW 33 52 18 28 - - 0.0
04/06:00pm 19.3 13.0 9.8 54 5.1 NW 33 46 18 25 - - 0.0
04/05:30pm 20.0 11.7 7.7 45 6.4 NW 41 63 22 34 - - 0.0
04/05:00pm 21.5 13.0 8.7 44 6.8 NW 43 72 23 39 - - 0.0
04/04:30pm 21.4 12.3 6.9 39 7.5 NW 44 69 24 37 - - 0.0
04/04:00pm 22.0 13.1 7.0 38 7.8 NW 43 63 23 34 - - 0.0
04/03:30pm 22.1 13.6 8.6 42 7.2 NW 43 67 23 36 - - 0.0
04/03:08pm 22.1 14.2 9.3 44 6.9 NNW 41 61 22 33 - - 0.0
04/03:00pm 22.3 15.0 8.8 42 7.2 NW 37 52 20 28 - - 0.0
04/02:30pm 22.9 15.1 9.7 43 7.2 NW 41 61 22 33 - - 0.0
04/02:22pm 22.4 14.8 8.9 42 7.2 NW 39 57 21 31 - - 0.0
04/02:00pm 21.2 11.7 8.5 44 6.7 NNW 48 61 26 33 - - 0.0
04/01:31pm 21.9 13.6 9.4 45 6.8 NW 43 63 23 34 - - 0.0
04/01:30pm 21.4 13.1 9.3 46 6.5 NW 43 57 23 31 - - 0.0
04/01:01pm 21.3 13.0 9.2 46 6.5 NNW 43 61 23 33 - - 0.0
04/01:00pm 21.2 13.3 9.4 47 6.3 NNW 41 54 22 29 - - 0.0
04/12:32pm 20.2 12.5 8.5 47 6.2 NW 39 61 21 33 - - 0.0
04/12:30pm 20.2 12.9 8.8 48 6.0 NW 37 54 20 29 - - 0.0
04/12:20pm 20.5 12.8 8.5 46 6.3 NW 39 57 21 31 - - 0.0
04/12:00pm 20.4 11.8 9.0 48 6.1 NNW 44 59 24 32 - - 0.0
04/11:30am 20.3 12.6 8.6 47 6.2 NNW 39 52 21 28 - - 0.0
04/11:04am 19.4 12.5 9.0 51 5.5 NW 35 54 19 29 - - 0.0

Other Formats:

Comma delimited format used in spreadsheet applications
http://www.bom.gov.au/fwo/IDT60801/IDT60801.95969.axf

JavaScript Object Notation format (JSON) in row-major order
http://www.bom.gov.au/fwo/IDT60801/IDT60801.95969.json